Mayburn Corners, Ohio
Current Conditions -  °F | °C
As of 2:51 PM on Thursday 29 Jan 2015 (Local Time) from KYNG Reporting Station
Light Snow Light Snow  
Wind Chill: 27°   Ceiling: 2800
Heat Index: 34°   Visibility: 4mi
Dew Point: 31°   Wind: 9mph
Humidity: 89%   Direction: 180°S
Pressure: 29.75"   Gusts: NA
Location:  41.4314°N, 80.6629°W
Report Text: KYNG 291951Z 18008KT 4SM -SN FEW007 SCT017 OVC028 01/M01 A2975 RMK AO2 SNB15 SLP087 P0001 T00111006
Loading
Personal Weather Stations






























Interactive Weather Map New forecast layout! Learn more

10-Day Weather Forecast

Advertisements
Track Severe Weather on mobile